createdAt,value
2022-10-06T00:01:06.259Z,18.90
2022-10-06T00:03:34.390Z,18.90
2022-10-06T00:06:03.853Z,18.80
2022-10-06T00:08:32.168Z,18.90
2022-10-06T00:11:00.204Z,18.80
2022-10-06T00:13:28.574Z,18.80
2022-10-06T00:15:58.010Z,18.70
2022-10-06T00:18:26.283Z,18.80
2022-10-06T00:20:58.317Z,18.80
2022-10-06T00:23:26.480Z,18.80
2022-10-06T00:25:54.250Z,18.70
2022-10-06T00:28:22.150Z,18.80
2022-10-06T00:30:51.082Z,18.80
2022-10-06T00:33:20.635Z,18.80
2022-10-06T00:35:56.665Z,18.80
2022-10-06T00:38:24.919Z,18.80
2022-10-06T00:40:53.413Z,18.80
2022-10-06T00:43:41.659Z,18.80
2022-10-06T00:46:12.473Z,18.80
2022-10-06T00:48:42.241Z,18.80
2022-10-06T00:51:10.192Z,18.70
2022-10-06T00:53:38.257Z,18.80
2022-10-06T00:56:06.282Z,18.80
2022-10-06T00:58:34.113Z,18.70
2022-10-06T01:01:02.627Z,18.70
2022-10-06T01:03:34.496Z,18.70
2022-10-06T01:06:05.003Z,18.70
2022-10-06T01:08:34.009Z,18.60
2022-10-06T01:11:02.108Z,18.70
2022-10-06T01:13:31.505Z,18.70
2022-10-06T01:16:05.823Z,18.70
2022-10-06T01:18:34.829Z,18.60
2022-10-06T01:21:09.296Z,18.60
2022-10-06T01:23:41.078Z,18.60
2022-10-06T01:26:11.935Z,18.60
2022-10-06T01:28:40.163Z,18.60
2022-10-06T01:31:09.184Z,18.50
2022-10-06T01:33:37.103Z,18.50
2022-10-06T01:36:05.519Z,18.50
2022-10-06T01:38:33.525Z,18.50
2022-10-06T01:41:05.936Z,18.50
2022-10-06T01:43:35.737Z,18.60
2022-10-06T01:46:05.982Z,18.50
2022-10-06T01:48:36.677Z,18.50
2022-10-06T01:51:04.903Z,18.50
2022-10-06T01:53:32.965Z,18.50
2022-10-06T01:56:01.003Z,18.50
2022-10-06T01:58:32.653Z,18.40
2022-10-06T02:01:06.936Z,18.60
2022-10-06T02:03:36.895Z,18.50
2022-10-06T02:06:05.491Z,18.50
2022-10-06T02:08:33.967Z,18.50
2022-10-06T02:11:07.947Z,18.50
2022-10-06T02:13:38.149Z,18.50
2022-10-06T02:16:07.952Z,18.50
2022-10-06T02:18:36.281Z,18.50
2022-10-06T02:21:04.451Z,18.40
2022-10-06T02:23:32.756Z,18.40
2022-10-06T02:26:01.020Z,18.40
2022-10-06T02:28:29.660Z,18.40
2022-10-06T02:31:03.432Z,18.40
2022-10-06T02:33:31.701Z,18.40
2022-10-06T02:36:00.602Z,18.40
2022-10-06T02:38:30.433Z,18.40
2022-10-06T02:40:59.315Z,18.40
2022-10-06T02:43:28.840Z,18.40
2022-10-06T02:45:57.868Z,18.30
2022-10-06T02:48:28.881Z,18.30
2022-10-06T02:50:57.983Z,18.30
2022-10-06T02:53:26.614Z,18.30
2022-10-06T02:55:59.171Z,18.40
2022-10-06T02:58:27.506Z,18.40
2022-10-06T03:00:55.555Z,18.40
2022-10-06T03:03:23.383Z,18.40
2022-10-06T03:06:00.430Z,18.30
2022-10-06T03:08:28.627Z,18.40
2022-10-06T03:11:01.923Z,18.40
2022-10-06T03:13:30.298Z,18.40
2022-10-06T03:15:58.623Z,18.30
2022-10-06T03:18:26.939Z,18.40
2022-10-06T03:21:01.296Z,18.40
2022-10-06T03:23:29.619Z,18.30
2022-10-06T03:25:58.331Z,18.30
2022-10-06T03:28:27.347Z,18.30
2022-10-06T03:30:55.675Z,18.30
2022-10-06T03:33:23.971Z,18.30
2022-10-06T03:36:00.983Z,18.30
2022-10-06T03:38:31.220Z,18.40
2022-10-06T03:41:06.770Z,18.50
2022-10-06T03:43:34.806Z,18.50
2022-10-06T03:46:04.011Z,18.40
2022-10-06T03:48:34.079Z,18.40
2022-10-06T03:51:05.560Z,18.40
2022-10-06T03:53:34.447Z,18.40
2022-10-06T03:56:04.590Z,18.40
2022-10-06T03:58:35.231Z,18.40
2022-10-06T04:01:04.520Z,18.40
2022-10-06T04:03:33.046Z,18.40
2022-10-06T04:06:04.471Z,18.40
2022-10-06T04:08:34.485Z,18.40
2022-10-06T04:11:06.733Z,18.40
2022-10-06T04:13:34.545Z,18.40
2022-10-06T04:16:11.754Z,18.30
2022-10-06T04:18:39.713Z,18.40
2022-10-06T04:21:09.409Z,18.40
2022-10-06T04:23:37.474Z,18.40
2022-10-06T04:26:09.352Z,18.20
2022-10-06T04:28:38.865Z,18.40
2022-10-06T04:31:11.382Z,18.40
2022-10-06T04:33:39.466Z,18.30
2022-10-06T04:36:09.989Z,18.40
2022-10-06T04:38:38.058Z,18.40
2022-10-06T04:41:08.099Z,18.30
2022-10-06T04:43:36.248Z,18.30
2022-10-06T04:46:23.865Z,18.30
2022-10-06T04:48:54.818Z,18.20
2022-10-06T04:51:28.367Z,18.30
2022-10-06T04:53:57.420Z,18.30
2022-10-06T04:56:29.278Z,18.30
2022-10-06T04:58:59.584Z,18.20
2022-10-06T05:01:29.048Z,18.30
2022-10-06T05:03:59.766Z,18.40
2022-10-06T05:06:32.044Z,18.40
2022-10-06T05:09:02.216Z,18.30
2022-10-06T05:11:31.703Z,18.30
2022-10-06T05:14:00.150Z,18.50
2022-10-06T05:16:32.245Z,18.60
2022-10-06T05:19:01.045Z,18.60
2022-10-06T05:21:32.140Z,18.60
2022-10-06T05:24:02.737Z,18.60
2022-10-06T05:26:32.632Z,18.70
2022-10-06T05:29:01.940Z,18.50
2022-10-06T05:31:31.742Z,18.60
2022-10-06T05:34:01.718Z,18.60
2022-10-06T05:36:33.866Z,18.60
2022-10-06T05:39:02.746Z,18.70
2022-10-06T05:41:38.613Z,18.60
2022-10-06T05:44:09.588Z,18.60
2022-10-06T05:46:39.662Z,18.60
2022-10-06T05:49:10.425Z,18.60
2022-10-06T05:51:42.688Z,18.60
2022-10-06T05:54:15.986Z,18.60
2022-10-06T05:56:44.049Z,18.60
2022-10-06T05:59:11.906Z,18.60
2022-10-06T06:01:41.567Z,18.60
2022-10-06T06:04:17.705Z,18.40
2022-10-06T06:06:50.933Z,17.90
2022-10-06T06:09:26.304Z,17.70
2022-10-06T06:11:56.547Z,17.50
2022-10-06T06:15:06.479Z,17.40
2022-10-06T06:17:39.718Z,17.40
2022-10-06T06:20:08.858Z,17.30
2022-10-06T06:22:37.996Z,17.20
2022-10-06T06:25:07.896Z,17.20
2022-10-06T06:27:35.826Z,17.10
2022-10-06T06:30:06.047Z,17.10
2022-10-06T06:32:33.861Z,17.10
2022-10-06T06:35:01.751Z,17.10
2022-10-06T06:37:31.332Z,17.10
2022-10-06T06:40:00.527Z,17.10
2022-10-06T06:42:28.468Z,17.10
2022-10-06T06:45:28.754Z,17.10
2022-10-06T06:48:15.370Z,17.10
2022-10-06T06:50:45.652Z,17.10
2022-10-06T06:53:16.355Z,17.00
2022-10-06T06:55:50.898Z,17.00
2022-10-06T06:58:19.540Z,17.10
2022-10-06T07:00:48.053Z,17.20
2022-10-06T07:03:32.847Z,17.20
2022-10-06T07:06:08.775Z,17.20
2022-10-06T07:08:37.959Z,17.30
2022-10-06T07:11:15.168Z,17.50
2022-10-06T07:13:44.143Z,17.80
2022-10-06T07:16:31.428Z,18.30
2022-10-06T07:19:20.121Z,18.60
2022-10-06T07:22:09.884Z,18.90
2022-10-06T07:24:55.461Z,19.30
2022-10-06T07:27:26.432Z,19.60
2022-10-06T07:29:55.785Z,19.80
2022-10-06T07:32:25.087Z,20.00
2022-10-06T07:34:56.417Z,20.20
2022-10-06T07:37:24.478Z,20.40
2022-10-06T07:39:52.878Z,20.50
2022-10-06T07:42:20.857Z,20.70
2022-10-06T07:45:04.554Z,20.80
2022-10-06T07:47:33.145Z,20.80
2022-10-06T07:50:01.173Z,20.90
2022-10-06T07:52:29.921Z,21.10
2022-10-06T07:54:58.738Z,21.30
2022-10-06T07:57:45.840Z,21.40
2022-10-06T08:00:16.440Z,21.60
2022-10-06T08:02:44.444Z,21.70
2022-10-06T08:05:12.335Z,21.80
2022-10-06T08:07:40.088Z,21.90
2022-10-06T08:10:08.696Z,21.90
2022-10-06T08:12:37.810Z,22.10
2022-10-06T08:15:07.825Z,22.20
2022-10-06T08:17:37.544Z,22.10
2022-10-06T08:20:07.403Z,22.30
2022-10-06T08:22:36.151Z,22.40
2022-10-06T08:25:06.859Z,22.30
2022-10-06T08:27:38.091Z,22.30
2022-10-06T08:30:07.120Z,22.20
2022-10-06T08:32:37.307Z,22.50
2022-10-06T08:35:05.757Z,22.60
2022-10-06T08:37:33.558Z,22.50
2022-10-06T08:40:01.330Z,22.70
2022-10-06T08:42:37.986Z,22.70
2022-10-06T08:45:14.465Z,22.60
2022-10-06T08:47:50.504Z,22.80
2022-10-06T08:50:21.143Z,22.70
2022-10-06T08:52:56.531Z,22.90
2022-10-06T08:55:34.122Z,22.90
2022-10-06T08:58:19.067Z,22.70
2022-10-06T09:00:46.911Z,22.80
2022-10-06T09:03:23.601Z,22.80
2022-10-06T09:05:53.564Z,22.70
2022-10-06T09:08:37.318Z,22.60
2022-10-06T09:11:17.683Z,22.60
2022-10-06T09:13:53.159Z,22.30
2022-10-06T09:16:27.987Z,22.50
2022-10-06T09:19:09.451Z,22.50
2022-10-06T09:21:41.936Z,22.40
2022-10-06T09:24:15.276Z,22.30
2022-10-06T09:26:45.316Z,22.20
2022-10-06T09:29:13.905Z,22.40
2022-10-06T09:31:44.115Z,22.70
2022-10-06T09:34:22.583Z,22.80
2022-10-06T09:37:02.625Z,22.70
2022-10-06T09:39:36.156Z,22.30
2022-10-06T09:42:07.452Z,22.40
2022-10-06T09:44:50.055Z,22.30
2022-10-06T09:47:44.692Z,22.30
2022-10-06T09:50:23.551Z,22.10
2022-10-06T09:53:12.278Z,22.20
2022-10-06T09:55:46.764Z,21.90
2022-10-06T09:58:24.213Z,22.10
2022-10-06T10:00:57.494Z,22.20
2022-10-06T10:03:26.967Z,22.20
2022-10-06T10:05:56.550Z,22.20
2022-10-06T10:08:26.054Z,22.30
2022-10-06T10:11:33.022Z,22.30
2022-10-06T10:14:00.803Z,22.20
2022-10-06T10:16:34.538Z,22.20
2022-10-06T10:19:04.088Z,22.20
2022-10-06T10:21:35.359Z,22.30
2022-10-06T10:24:06.600Z,22.10
2022-10-06T10:26:46.199Z,21.60
2022-10-06T10:29:36.920Z,21.60
2022-10-06T10:32:12.088Z,21.80
2022-10-06T10:35:04.198Z,22.00
2022-10-06T10:37:40.568Z,21.90
2022-10-06T10:40:22.115Z,22.00
2022-10-06T10:42:57.435Z,22.20
2022-10-06T10:45:32.145Z,22.10
2022-10-06T10:48:01.175Z,22.00
2022-10-06T10:50:32.543Z,21.70
2022-10-06T10:53:09.650Z,21.60
2022-10-06T10:55:42.509Z,21.60
2022-10-06T10:58:18.710Z,21.80
2022-10-06T11:00:50.890Z,21.50
2022-10-06T11:03:18.797Z,21.10
2022-10-06T11:06:14.617Z,21.00
2022-10-06T11:08:50.587Z,21.20
2022-10-06T11:11:28.168Z,21.30
2022-10-06T11:14:00.577Z,21.30
2022-10-06T11:16:41.573Z,21.30
2022-10-06T11:19:16.640Z,21.30
2022-10-06T11:21:54.631Z,21.30
2022-10-06T11:24:32.532Z,21.30
2022-10-06T11:27:11.953Z,21.20
2022-10-06T11:29:46.414Z,21.10
2022-10-06T11:32:25.830Z,21.00
2022-10-06T11:34:54.157Z,21.00
2022-10-06T11:37:35.784Z,21.00
2022-10-06T11:40:21.226Z,20.70
2022-10-06T11:42:53.486Z,20.70
2022-10-06T11:45:28.990Z,20.50
2022-10-06T11:48:20.936Z,20.50
2022-10-06T11:50:52.888Z,20.50
2022-10-06T11:53:40.882Z,20.40
2022-10-06T11:56:36.356Z,20.30
2022-10-06T11:59:25.698Z,20.20
2022-10-06T12:02:02.994Z,20.10
2022-10-06T12:04:31.047Z,20.20
2022-10-06T12:07:06.196Z,20.10
2022-10-06T12:10:14.811Z,20.10
2022-10-06T12:13:06.102Z,20.10
2022-10-06T12:18:53.282Z,20.10
2022-10-06T12:21:32.417Z,20.10
2022-10-06T12:24:06.197Z,20.10
2022-10-06T12:26:41.761Z,20.10
2022-10-06T12:29:31.308Z,20.10
2022-10-06T12:32:06.632Z,20.00
2022-10-06T12:34:46.968Z,19.90
2022-10-06T12:37:22.351Z,19.80
2022-10-06T12:39:50.123Z,19.90
2022-10-06T12:42:21.138Z,19.80
2022-10-06T12:44:51.587Z,20.00
2022-10-06T12:47:26.119Z,19.90
2022-10-06T12:49:59.119Z,19.80
2022-10-06T12:52:43.216Z,19.80
2022-10-06T12:55:27.528Z,19.80
2022-10-06T12:57:55.704Z,19.70
2022-10-06T13:00:34.517Z,19.60
2022-10-06T13:03:06.060Z,19.60
2022-10-06T13:05:35.795Z,19.80
2022-10-06T13:08:05.286Z,19.80
2022-10-06T13:10:34.285Z,19.90
2022-10-06T13:13:02.445Z,19.80
2022-10-06T13:15:34.380Z,19.80
2022-10-06T13:18:13.755Z,19.70
2022-10-06T13:20:44.036Z,19.70
2022-10-06T13:23:24.075Z,19.80
2022-10-06T13:25:55.708Z,19.70
2022-10-06T13:28:26.552Z,19.90
2022-10-06T13:30:57.309Z,19.80
2022-10-06T13:33:29.400Z,19.70
2022-10-06T13:35:59.064Z,19.70
2022-10-06T13:38:31.644Z,19.70
2022-10-06T13:41:20.757Z,19.70
2022-10-06T13:43:51.030Z,19.70
2022-10-06T13:46:22.766Z,19.70
2022-10-06T13:48:54.282Z,19.60
2022-10-06T13:51:25.512Z,19.60
2022-10-06T13:53:54.125Z,19.60
2022-10-06T13:56:36.968Z,19.70
2022-10-06T13:59:29.009Z,19.80
2022-10-06T14:02:00.730Z,19.70
2022-10-06T14:04:29.158Z,19.80
2022-10-06T14:06:59.355Z,19.80
2022-10-06T14:09:30.407Z,19.80
2022-10-06T14:12:04.736Z,19.70
2022-10-06T14:14:32.780Z,19.70
2022-10-06T14:17:02.340Z,19.50
2022-10-06T14:19:36.147Z,19.50
2022-10-06T14:22:05.854Z,19.40
2022-10-06T14:24:37.107Z,19.40
2022-10-06T14:27:06.854Z,19.40
2022-10-06T14:29:37.696Z,19.40
2022-10-06T14:32:14.470Z,19.40
2022-10-06T14:34:42.708Z,19.40
2022-10-06T14:37:13.202Z,19.40
2022-10-06T14:39:41.126Z,19.40
2022-10-06T14:42:08.952Z,19.30
2022-10-06T14:44:38.535Z,19.20
2022-10-06T14:47:09.207Z,19.30
2022-10-06T14:49:38.462Z,19.50
2022-10-06T14:52:08.997Z,19.60
2022-10-06T14:54:37.711Z,19.50
2022-10-06T14:57:05.632Z,19.40
2022-10-06T14:59:33.428Z,19.30
2022-10-06T15:02:01.242Z,19.30
2022-10-06T15:04:29.179Z,19.40
2022-10-06T15:07:15.512Z,19.30
2022-10-06T15:09:43.636Z,19.30
2022-10-06T15:12:11.418Z,19.40
2022-10-06T15:14:39.696Z,19.30
2022-10-06T15:17:07.961Z,19.30
2022-10-06T15:19:35.743Z,19.30
2022-10-06T15:22:06.268Z,19.30
2022-10-06T15:24:34.044Z,19.20
2022-10-06T15:27:23.882Z,19.10
2022-10-06T15:29:52.579Z,19.10
2022-10-06T15:32:20.372Z,19.30
2022-10-06T15:34:48.173Z,19.10
2022-10-06T15:37:19.830Z,19.10
2022-10-06T15:39:47.832Z,19.10
2022-10-06T15:42:18.582Z,19.10
2022-10-06T15:44:46.395Z,19.10
2022-10-06T15:47:14.198Z,19.20
2022-10-06T15:49:42.054Z,19.10
2022-10-06T15:52:12.788Z,19.10
2022-10-06T15:54:42.345Z,19.10
2022-10-06T15:57:16.591Z,19.10
2022-10-06T15:59:48.300Z,19.00
2022-10-06T16:02:17.537Z,19.10
2022-10-06T16:04:57.500Z,19.00
2022-10-06T16:07:25.467Z,19.00
2022-10-06T16:09:54.572Z,19.00
2022-10-06T16:12:25.006Z,19.00
2022-10-06T16:14:52.978Z,18.90
2022-10-06T16:17:21.049Z,18.90
2022-10-06T16:19:48.883Z,18.90
2022-10-06T16:22:19.196Z,18.90
2022-10-06T16:24:47.004Z,18.90
2022-10-06T16:27:16.686Z,18.80
2022-10-06T16:29:44.475Z,18.80
2022-10-06T16:32:12.341Z,18.80
2022-10-06T16:34:40.127Z,18.80
2022-10-06T16:37:07.902Z,18.70
2022-10-06T16:39:35.665Z,18.70
2022-10-06T16:42:03.693Z,18.70
2022-10-06T16:44:32.786Z,18.60
2022-10-06T16:47:00.588Z,18.60
2022-10-06T16:49:28.515Z,18.60
2022-10-06T16:51:56.267Z,18.60
2022-10-06T16:54:24.767Z,18.50
2022-10-06T16:56:54.795Z,18.60
2022-10-06T16:59:25.776Z,18.60
2022-10-06T17:01:54.899Z,18.50
2022-10-06T17:04:24.223Z,18.50
2022-10-06T17:06:54.136Z,18.50
2022-10-06T17:09:23.242Z,18.40
2022-10-06T17:11:52.948Z,18.40
2022-10-06T17:14:22.095Z,18.40
2022-10-06T17:16:51.784Z,18.40
2022-10-06T17:19:22.590Z,18.40
2022-10-06T17:21:54.321Z,18.30
2022-10-06T17:24:25.447Z,18.30
2022-10-06T17:26:53.273Z,18.20
2022-10-06T17:29:22.807Z,18.20
2022-10-06T17:31:55.934Z,18.20
2022-10-06T17:34:30.703Z,18.10
2022-10-06T17:37:01.013Z,18.10
2022-10-06T17:39:28.785Z,18.10
2022-10-06T17:41:56.691Z,18.10
2022-10-06T17:44:26.824Z,18.00
2022-10-06T17:46:56.399Z,18.00
2022-10-06T17:49:26.072Z,18.00
2022-10-06T17:51:55.056Z,17.90
2022-10-06T17:54:25.010Z,17.90
2022-10-06T17:56:55.629Z,17.90
2022-10-06T17:59:25.735Z,17.90
2022-10-06T18:01:57.891Z,17.80
2022-10-06T18:04:28.713Z,17.80
2022-10-06T18:06:57.699Z,17.80
2022-10-06T18:09:25.994Z,17.70
2022-10-06T18:11:56.397Z,17.70
2022-10-06T18:14:26.283Z,18.00
2022-10-06T18:16:56.618Z,17.90
2022-10-06T18:19:29.832Z,17.80
2022-10-06T18:22:00.145Z,17.70
2022-10-06T18:24:30.105Z,17.70
2022-10-06T18:27:00.732Z,17.70
2022-10-06T18:29:31.430Z,17.80
2022-10-06T18:32:26.976Z,17.90
2022-10-06T18:37:36.412Z,18.00
2022-10-06T18:40:06.716Z,18.00
2022-10-06T18:42:34.741Z,18.00
2022-10-06T18:45:20.130Z,18.00
2022-10-06T18:48:05.613Z,18.10
2022-10-06T18:50:34.995Z,18.10
2022-10-06T18:53:03.933Z,18.00
2022-10-06T18:55:31.950Z,18.00
2022-10-06T18:58:00.440Z,18.00
2022-10-06T19:00:28.260Z,18.00
2022-10-06T19:02:56.689Z,18.00
2022-10-06T19:05:25.293Z,18.00
2022-10-06T19:07:55.642Z,18.00
2022-10-06T19:10:23.542Z,18.00
2022-10-06T19:12:51.330Z,18.00
2022-10-06T19:15:21.017Z,17.90
2022-10-06T19:17:49.879Z,18.00
2022-10-06T19:20:18.129Z,18.00
2022-10-06T19:22:47.189Z,18.00
2022-10-06T19:25:18.681Z,18.00
2022-10-06T19:27:47.161Z,18.10
2022-10-06T19:30:15.745Z,18.10
2022-10-06T19:32:43.619Z,18.00
2022-10-06T19:35:11.389Z,18.10
2022-10-06T19:37:39.351Z,18.10
2022-10-06T19:40:10.996Z,18.00
2022-10-06T19:42:48.113Z,18.00
2022-10-06T19:45:16.710Z,18.10
2022-10-06T19:47:46.185Z,18.00
2022-10-06T19:50:14.827Z,17.90
2022-10-06T19:52:42.853Z,17.90
2022-10-06T19:55:10.725Z,17.80
2022-10-06T19:57:40.018Z,17.90
2022-10-06T20:00:10.104Z,17.90
2022-10-06T20:02:42.840Z,17.90
2022-10-06T20:05:12.046Z,17.80
2022-10-06T20:07:40.367Z,17.80
2022-10-06T20:10:08.871Z,17.80
2022-10-06T20:12:38.196Z,17.90
2022-10-06T20:15:08.357Z,17.90
2022-10-06T20:17:36.283Z,17.90
2022-10-06T20:20:04.392Z,17.80
2022-10-06T20:22:32.474Z,17.90
2022-10-06T20:25:01.743Z,18.30
2022-10-06T20:27:29.593Z,18.50
2022-10-06T20:29:57.935Z,18.60
2022-10-06T20:32:27.297Z,18.70
2022-10-06T20:34:55.076Z,18.80
2022-10-06T20:37:22.851Z,18.60
2022-10-06T20:40:08.110Z,18.50
2022-10-06T20:42:35.868Z,18.70
2022-10-06T20:45:04.218Z,18.80
2022-10-06T20:47:33.315Z,18.70
2022-10-06T20:50:01.066Z,18.70
2022-10-06T20:52:29.311Z,18.70
2022-10-06T20:54:57.128Z,18.70
2022-10-06T20:57:27.333Z,18.80
2022-10-06T20:59:57.982Z,18.80
2022-10-06T21:02:26.013Z,18.80
2022-10-06T21:04:57.442Z,18.90
2022-10-06T21:07:25.368Z,19.00
2022-10-06T21:09:53.277Z,18.90
2022-10-06T21:12:21.205Z,19.00
2022-10-06T21:14:49.314Z,18.90
2022-10-06T21:17:17.216Z,18.80
2022-10-06T21:19:45.143Z,18.90
2022-10-06T21:22:14.418Z,18.80
2022-10-06T21:24:42.335Z,18.80
2022-10-06T21:27:10.371Z,18.80
2022-10-06T21:29:39.063Z,18.80
2022-10-06T21:32:07.332Z,18.80
2022-10-06T21:34:35.246Z,19.00
2022-10-06T21:37:03.344Z,19.00
2022-10-06T21:39:32.656Z,19.00
2022-10-06T21:42:00.588Z,19.00
2022-10-06T21:44:28.473Z,19.00
2022-10-06T21:46:57.049Z,19.10
2022-10-06T21:49:28.221Z,19.20
2022-10-06T21:51:58.350Z,19.20
2022-10-06T21:54:26.274Z,19.10
2022-10-06T21:56:55.687Z,19.00
2022-10-06T21:59:23.610Z,18.90
2022-10-06T22:01:51.632Z,18.90
2022-10-06T22:04:19.671Z,18.80
2022-10-06T22:06:50.188Z,18.90
2022-10-06T22:09:20.031Z,18.80
2022-10-06T22:11:48.085Z,18.70
2022-10-06T22:14:19.507Z,18.60
2022-10-06T22:16:47.660Z,18.60
2022-10-06T22:19:16.365Z,18.60
2022-10-06T22:21:46.196Z,18.60
2022-10-06T22:24:15.891Z,18.50
2022-10-06T22:26:44.696Z,18.50
2022-10-06T22:29:14.517Z,18.60
2022-10-06T22:31:45.750Z,18.50
2022-10-06T22:34:15.892Z,18.50
2022-10-06T22:36:44.190Z,18.50
2022-10-06T22:39:12.187Z,18.50
2022-10-06T22:41:40.151Z,18.60
2022-10-06T22:44:08.124Z,18.50
2022-10-06T22:46:37.903Z,18.50
2022-10-06T22:49:07.509Z,18.60
2022-10-06T22:51:35.545Z,18.60
2022-10-06T22:54:03.970Z,18.50
2022-10-06T22:56:34.044Z,18.60
2022-10-06T22:59:02.142Z,18.50
2022-10-06T23:01:30.625Z,18.40
2022-10-06T23:03:58.765Z,18.50
2022-10-06T23:06:29.834Z,18.60
2022-10-06T23:08:58.018Z,18.60
2022-10-06T23:11:25.959Z,18.40
2022-10-06T23:13:53.915Z,18.30
2022-10-06T23:16:22.235Z,18.50
2022-10-06T23:18:50.408Z,18.40
2022-10-06T23:21:21.846Z,18.40
2022-10-06T23:23:53.037Z,18.30
2022-10-06T23:26:22.255Z,18.30
2022-10-06T23:28:53.503Z,18.40
2022-10-06T23:31:21.534Z,18.30
2022-10-06T23:33:49.630Z,18.50
2022-10-06T23:36:17.812Z,18.50
2022-10-06T23:38:46.052Z,18.50
2022-10-06T23:41:15.751Z,18.50
2022-10-06T23:43:43.880Z,18.40
2022-10-06T23:46:12.385Z,18.40
2022-10-06T23:48:40.530Z,18.40
2022-10-06T23:51:10.808Z,18.40
2022-10-06T23:53:39.479Z,18.40
2022-10-06T23:56:08.905Z,18.40
2022-10-06T23:58:38.429Z,18.40
